Time;durP1;ratioP1;P1;durP2;ratioP2;P2;SDS_P1;SDS_P2;PMS_P1;PMS_P2;Temp;Humidity;BMP_temperature;BMP_pressure;BME280_temperature;BME280_humidity;BME280_pressure;Samples;Min_cycle;Max_cycle;Signal;HPM_P1;HPM_P2
2023/05/20 04:00:43;;;;;;;4.03;1.90;;;11.90;97.30;;;;;;5968364;22;21195;-86
2023/05/20 04:03:09;;;;;;;3.43;3.23;;;11.90;97.30;;;;;;4974135;28;20445;-83
2023/05/20 04:05:35;;;;;;;5.67;5.00;;;11.90;97.30;;;;;;4985272;28;20182;-85
2023/05/20 04:08:01;;;;;;;10.40;4.23;;;11.90;97.30;;;;;;4971746;28;20421;-85
2023/05/20 04:10:26;;;;;;;11.63;2.87;;;11.90;97.30;;;;;;4976601;28;20489;-85
2023/05/20 04:12:52;;;;;;;5.40;3.20;;;11.90;97.30;;;;;;4967150;28;20239;-85
2023/05/20 04:15:18;;;;;;;3.93;2.90;;;11.90;97.30;;;;;;4967561;28;20233;-84
2023/05/20 04:17:47;;;;;;;5.83;3.67;;;11.90;97.30;;;;;;4968586;28;20799;-85
2023/05/20 04:20:13;;;;;;;28.23;5.10;;;11.90;97.30;;;;;;4974922;28;20189;-83
2023/05/20 04:22:38;;;;;;;12.03;6.80;;;12.00;97.30;;;;;;4989997;28;20437;-86
2023/05/20 04:25:05;;;;;;;7.50;3.70;;;12.00;97.30;;;;;;4971975;28;20560;-86
2023/05/20 04:27:32;;;;;;;11.10;5.00;;;12.00;97.30;;;;;;4952228;28;20513;-85
2023/05/20 04:29:58;;;;;;;9.13;4.63;;;12.00;97.30;;;;;;4951325;28;20423;-85
2023/05/20 04:32:23;;;;;;;5.03;3.70;;;12.00;97.30;;;;;;4952547;28;20438;-85
2023/05/20 04:34:49;;;;;;;7.60;4.93;;;12.00;97.30;;;;;;4960983;28;20637;-85
2023/05/20 04:37:15;;;;;;;3.17;2.97;;;12.00;97.30;;;;;;4954860;28;20221;-86
2023/05/20 04:39:42;;;;;;;8.10;3.83;;;12.00;97.30;;;;;;4972486;28;20469;-85
2023/05/20 04:42:07;;;;;;;9.73;3.63;;;12.00;97.30;;;;;;4959415;28;20216;-86
2023/05/20 04:44:33;;;;;;;9.83;5.77;;;12.00;97.30;;;;;;4951580;28;20430;-85
2023/05/20 04:46:59;;;;;;;4.13;3.63;;;12.00;97.30;;;;;;4950119;28;20617;-85
2023/05/20 04:49:25;;;;;;;5.00;4.43;;;12.00;97.30;;;;;;4953373;28;20183;-86
2023/05/20 04:51:54;;;;;;;6.20;4.20;;;12.10;97.30;;;;;;4947854;28;20395;-86
2023/05/20 04:54:20;;;;;;;5.77;3.07;;;12.10;97.30;;;;;;4961131;28;20795;-86
2023/05/20 04:56:45;;;;;;;4.73;2.93;;;12.00;97.30;;;;;;4950032;28;20423;-84
2023/05/20 04:59:12;;;;;;;2.50;2.30;;;12.10;97.30;;;;;;4956040;28;20188;-85
2023/05/20 05:01:37;;;;;;;5.60;3.00;;;12.00;97.30;;;;;;4967143;28;20317;-86
2023/05/20 05:04:03;;;;;;;4.23;2.83;;;12.10;97.30;;;;;;4953764;28;20988;-86
2023/05/20 05:06:29;;;;;;;5.20;3.17;;;12.10;97.30;;;;;;4960188;28;20229;-86
2023/05/20 05:08:54;;;;;;;10.97;5.40;;;12.10;97.30;;;;;;4969228;28;20591;-86
2023/05/20 05:11:20;;;;;;;7.17;5.33;;;12.20;97.30;;;;;;4969908;28;20683;-85
2023/05/20 05:13:46;;;;;;;5.80;4.53;;;12.20;97.30;;;;;;4949544;28;20560;-86
2023/05/20 05:16:11;;;;;;;7.63;5.23;;;12.30;97.30;;;;;;4954830;28;20178;-86
2023/05/20 05:18:37;;;;;;;17.13;7.97;;;12.30;97.30;;;;;;4950722;28;20194;-86
2023/05/20 05:21:03;;;;;;;6.60;3.73;;;12.30;97.30;;;;;;4952037;28;20256;-86
2023/05/20 05:23:29;;;;;;;5.10;4.70;;;12.40;97.30;;;;;;4951991;28;20199;-86
2023/05/20 05:25:56;;;;;;;6.00;4.80;;;12.50;97.30;;;;;;4954738;28;20429;-86
2023/05/20 05:28:21;;;;;;;7.73;5.03;;;12.50;97.30;;;;;;4968422;28;20443;-88
2023/05/20 05:30:47;;;;;;;15.33;5.63;;;12.50;97.30;;;;;;4971521;28;20443;-87
2023/05/20 05:33:16;;;;;;;6.80;4.97;;;12.50;97.30;;;;;;4978536;28;20179;-87
2023/05/20 05:35:42;;;;;;;6.40;4.20;;;12.50;97.30;;;;;;4952046;28;20426;-87
2023/05/20 05:38:09;;;;;;;2.73;2.57;;;12.60;97.30;;;;;;4970582;28;20884;-86
2023/05/20 05:40:35;;;;;;;11.90;5.03;;;12.60;97.30;;;;;;4954281;28;20558;-86
2023/05/20 05:43:00;;;;;;;4.40;4.10;;;12.70;97.30;;;;;;4955772;28;20932;-86
2023/05/20 05:45:26;;;;;;;7.60;5.93;;;12.70;97.30;;;;;;4976327;28;20186;-86
2023/05/20 05:47:51;;;;;;;10.87;4.53;;;12.80;97.30;;;;;;4967847;28;20171;-86
2023/05/20 05:50:17;;;;;;;9.60;5.20;;;12.90;97.30;;;;;;4957199;28;20174;-86
2023/05/20 05:52:42;;;;;;;4.73;4.43;;;12.90;97.30;;;;;;4967408;28;20211;-86
2023/05/20 05:55:09;;;;;;;5.87;4.20;;;13.00;97.30;;;;;;4970715;28;20266;-87
2023/05/20 05:57:35;;;;;;;9.40;4.90;;;13.10;97.30;;;;;;4950043;28;20191;-85
2023/05/20 06:00:00;;;;;;;4.57;3.70;;;13.10;97.30;;;;;;4953162;28;20429;-87
2023/05/20 06:02:26;;;;;;;7.50;5.00;;;13.10;97.30;;;;;;4951204;28;20258;-87
2023/05/20 06:04:52;;;;;;;7.63;3.60;;;13.10;97.30;;;;;;4955383;28;20170;-83
2023/05/20 06:07:17;;;;;;;11.70;4.93;;;13.10;97.30;;;;;;4952316;28;20174;-87
2023/05/20 06:09:43;;;;;;;15.77;6.13;;;13.20;97.30;;;;;;4951029;28;20444;-86
2023/05/20 06:12:09;;;;;;;5.27;4.37;;;13.20;97.30;;;;;;4951931;28;20559;-86
2023/05/20 06:14:35;;;;;;;6.80;5.07;;;13.30;97.30;;;;;;4949175;28;20424;-86
2023/05/20 06:17:01;;;;;;;7.83;3.73;;;13.30;97.30;;;;;;4952754;28;20183;-87
2023/05/20 06:19:27;;;;;;;7.63;6.27;;;13.30;97.30;;;;;;4960166;28;20268;-86
2023/05/20 06:21:52;;;;;;;13.20;5.33;;;13.30;97.30;;;;;;4986369;28;20490;-86
2023/05/20 06:24:17;;;;;;;11.53;5.97;;;13.30;97.30;;;;;;4986217;28;20177;-86
2023/05/20 06:26:44;;;;;;;6.20;4.60;;;13.30;97.30;;;;;;4981741;28;20554;-86
2023/05/20 06:29:10;;;;;;;6.00;5.20;;;13.40;97.30;;;;;;4989842;28;20185;-86
2023/05/20 06:31:36;;;;;;;18.67;6.27;;;13.40;97.30;;;;;;4976811;28;20449;-87
2023/05/20 06:34:01;;;;;;;12.03;3.77;;;13.40;97.30;;;;;;4977686;28;20192;-86
2023/05/20 06:36:27;;;;;;;16.23;5.23;;;13.40;97.30;;;;;;4995149;28;20192;-86
2023/05/20 06:38:53;;;;;;;11.43;4.33;;;13.40;97.30;;;;;;4977429;28;20186;-84
2023/05/20 06:41:18;;;;;;;8.23;4.80;;;13.40;97.30;;;;;;4968724;28;20847;-86
2023/05/20 06:43:44;;;;;;;8.00;6.63;;;13.30;97.30;;;;;;4968744;28;20185;-86
2023/05/20 06:46:09;;;;;;;4.10;3.87;;;13.40;97.30;;;;;;4967379;28;20256;-86
2023/05/20 06:48:35;;;;;;;6.57;5.17;;;13.40;97.30;;;;;;4965235;28;20178;-86
2023/05/20 06:51:00;;;;;;;5.53;5.00;;;13.40;97.30;;;;;;4964514;28;20210;-86
2023/05/20 06:53:26;;;;;;;7.90;5.10;;;13.30;97.30;;;;;;4967945;28;20202;-85
2023/05/20 06:55:54;;;;;;;12.03;6.83;;;13.30;97.30;;;;;;4952002;28;20178;-86
2023/05/20 06:58:20;;;;;;;6.90;4.93;;;13.30;97.30;;;;;;4952903;28;20249;-86
2023/05/20 07:00:46;;;;;;;9.20;6.07;;;13.40;97.30;;;;;;4967562;28;20983;-86
2023/05/20 07:03:11;;;;;;;8.33;6.53;;;13.40;97.30;;;;;;4956445;28;20178;-86
2023/05/20 07:05:37;;;;;;;12.43;5.80;;;13.40;97.30;;;;;;4949317;28;20194;-86
2023/05/20 07:08:03;;;;;;;12.77;5.70;;;13.40;97.30;;;;;;4953339;28;20207;-86
2023/05/20 07:10:29;;;;;;;12.53;5.10;;;13.40;97.30;;;;;;4957631;28;20186;-86
2023/05/20 07:12:54;;;;;;;9.93;7.50;;;13.50;97.30;;;;;;4955324;28;20390;-84
2023/05/20 07:15:20;;;;;;;19.93;7.60;;;13.50;97.30;;;;;;4972664;28;20452;-86
2023/05/20 07:17:45;;;;;;;5.93;4.70;;;13.50;97.30;;;;;;4953509;28;20171;-86
2023/05/20 07:20:11;;;;;;;8.40;5.33;;;13.50;97.30;;;;;;4963796;28;20240;-86
2023/05/20 07:22:36;;;;;;;11.80;5.23;;;13.50;97.30;;;;;;4969849;28;20830;-86
2023/05/20 07:25:02;;;;;;;5.70;4.57;;;13.50;97.30;;;;;;4965046;28;20720;-86
2023/05/20 07:27:27;;;;;;;6.20;5.17;;;13.50;97.30;;;;;;4960846;28;20179;-86
2023/05/20 07:29:53;;;;;;;8.77;6.20;;;13.50;97.30;;;;;;4957226;28;20186;-87
2023/05/20 07:32:19;;;;;;;7.53;5.33;;;13.50;97.30;;;;;;4966607;28;20214;-86
2023/05/20 07:34:44;;;;;;;9.00;5.40;;;13.50;97.30;;;;;;4974503;28;20664;-86
2023/05/20 07:37:11;;;;;;;7.67;5.37;;;13.60;97.30;;;;;;4986127;28;20249;-87
2023/05/20 07:39:37;;;;;;;14.57;6.27;;;13.60;97.30;;;;;;4974086;28;20196;-84
2023/05/20 07:42:02;;;;;;;10.17;5.97;;;13.60;97.30;;;;;;4966208;28;20560;-87
2023/05/20 07:44:28;;;;;;;4.90;3.80;;;13.70;97.30;;;;;;4974447;28;20667;-86
2023/05/20 07:46:54;;;;;;;12.30;5.93;;;13.80;97.30;;;;;;4966470;28;20206;-87
2023/05/20 07:49:20;;;;;;;10.03;5.90;;;13.90;97.30;;;;;;4974390;28;20190;-87
2023/05/20 07:51:46;;;;;;;7.53;4.63;;;14.00;97.30;;;;;;4973756;28;20455;-87
2023/05/20 07:54:11;;;;;;;10.83;6.80;;;14.00;97.30;;;;;;4992060;28;20571;-86
2023/05/20 07:56:37;;;;;;;14.97;6.90;;;14.10;97.30;;;;;;4960801;28;20189;-87
2023/05/20 07:59:02;;;;;;;7.20;6.03;;;14.20;97.30;;;;;;4991381;28;20399;-87
2023/05/20 08:01:28;;;;;;;5.17;4.40;;;14.30;97.30;;;;;;4972189;28;20230;-87
2023/05/20 08:03:54;;;;;;;7.80;6.07;;;14.40;97.30;;;;;;4966118;28;20557;-87
2023/05/20 08:06:19;;;;;;;7.37;5.07;;;14.40;97.30;;;;;;4966320;28;20184;-87
2023/05/20 08:08:46;;;;;;;11.57;5.60;;;14.50;97.30;;;;;;4973963;28;20194;-86
2023/05/20 08:11:12;;;;;;;10.73;5.77;;;14.50;97.30;;;;;;4972984;28;20684;-86
2023/05/20 08:13:37;;;;;;;19.00;5.30;;;14.60;97.30;;;;;;4973716;28;20568;-86
2023/05/20 08:16:04;;;;;;;8.93;6.30;;;14.60;97.30;;;;;;4964769;28;20185;-87
2023/05/20 08:18:31;;;;;;;8.10;4.73;;;14.70;97.30;;;;;;4975316;28;20182;-87
2023/05/20 08:20:57;;;;;;;6.67;5.60;;;14.70;97.30;;;;;;4991615;28;20495;-87
2023/05/20 08:23:23;;;;;;;18.97;6.20;;;14.70;97.30;;;;;;4959175;28;20507;-86
2023/05/20 08:25:49;;;;;;;8.30;5.03;;;14.80;97.30;;;;;;4992111;28;20511;-87
2023/05/20 08:28:14;;;;;;;9.50;6.00;;;14.80;97.30;;;;;;4959058;28;20348;-87
2023/05/20 08:30:40;;;;;;;5.67;3.40;;;14.90;97.30;;;;;;4972668;28;20288;-87
2023/05/20 08:33:06;;;;;;;10.20;5.57;;;15.00;97.30;;;;;;4965754;28;20177;-86
2023/05/20 08:35:31;;;;;;;14.53;5.50;;;15.10;97.30;;;;;;4971954;28;20268;-89
2023/05/20 08:37:57;;;;;;;13.90;5.97;;;15.20;97.30;;;;;;4970951;28;20186;-87
2023/05/20 08:40:22;;;;;;;17.40;5.87;;;15.20;97.30;;;;;;4972241;28;20667;-86
2023/05/20 08:42:53;;;;;;;9.90;5.30;;;15.20;97.30;;;;;;4973351;28;20174;-85
2023/05/20 08:45:20;;;;;;;10.67;5.27;;;15.20;97.30;;;;;;4973142;28;20178;-86
2023/05/20 08:47:46;;;;;;;7.90;2.73;;;15.20;97.30;;;;;;4973547;28;20417;-87
2023/05/20 08:50:13;;;;;;;6.40;5.03;;;15.30;97.30;;;;;;4964560;28;20966;-87
2023/05/20 08:52:47;;;;;;;8.77;6.20;;;15.50;97.30;;;;;;4973432;28;20252;-88
2023/05/20 08:55:21;;;;;;;19.33;7.20;;;15.60;97.30;;;;;;4973407;28;20424;-87
2023/05/20 08:57:50;;;;;;;4.53;3.77;;;15.70;97.30;;;;;;4975979;28;20421;-87
2023/05/20 09:00:17;;;;;;;11.23;4.93;;;15.70;97.30;;;;;;4991469;28;20475;-87
2023/05/20 09:02:44;;;;;;;10.73;8.07;;;15.80;97.30;;;;;;4975212;28;20531;-87
2023/05/20 09:05:10;;;;;;;12.50;6.97;;;15.90;97.30;;;;;;4974981;28;20483;-88
2023/05/20 09:07:36;;;;;;;8.80;6.30;;;15.90;97.30;;;;;;4970206;28;20512;-87
2023/05/20 09:10:02;;;;;;;22.20;6.63;;;15.80;97.30;;;;;;4974519;28;20174;-86
2023/05/20 09:12:28;;;;;;;17.47;5.80;;;15.80;97.30;;;;;;4977234;28;20683;-84
2023/05/20 09:14:53;;;;;;;25.30;8.47;;;15.80;97.30;;;;;;4979217;28;20452;-86
2023/05/20 09:17:21;;;;;;;12.93;6.30;;;15.90;97.30;;;;;;4977751;28;20185;-86
2023/05/20 09:19:50;;;;;;;23.50;9.07;;;15.90;97.30;;;;;;4976321;28;20268;-86
2023/05/20 09:22:25;;;;;;;5.67;5.17;;;15.90;97.30;;;;;;4977237;28;20461;-87
2023/05/20 09:24:51;;;;;;;11.00;7.30;;;16.00;97.30;;;;;;4976877;28;20535;-87
2023/05/20 09:27:17;;;;;;;10.30;6.80;;;15.90;97.30;;;;;;4974827;28;20413;-87
2023/05/20 09:29:43;;;;;;;10.90;6.30;;;15.90;97.30;;;;;;4970880;28;20927;-87
2023/05/20 09:32:09;;;;;;;18.07;7.13;;;16.00;97.30;;;;;;4975900;28;20452;-87
2023/05/20 09:34:36;;;;;;;6.40;4.07;;;16.00;97.30;;;;;;4970388;28;20432;-87
2023/05/20 09:37:02;;;;;;;13.80;7.50;;;16.10;97.30;;;;;;4978168;28;20429;-85
2023/05/20 09:39:32;;;;;;;16.00;7.87;;;16.30;97.30;;;;;;4973498;28;20960;-87
2023/05/20 09:42:05;;;;;;;12.30;6.80;;;16.40;97.30;;;;;;4976358;28;20221;-87
2023/05/20 09:44:33;;;;;;;11.70;6.43;;;16.40;97.30;;;;;;4975049;28;20447;-88
2023/05/20 09:47:00;;;;;;;6.03;5.53;;;16.50;97.30;;;;;;5002721;28;20824;-89
2023/05/20 09:49:27;;;;;;;8.83;5.97;;;16.50;97.30;;;;;;5019257;28;20431;-88
2023/05/20 09:51:53;;;;;;;10.33;5.73;;;16.50;97.30;;;;;;4973277;28;20615;-87
2023/05/20 09:54:19;;;;;;;3.87;3.67;;;16.60;97.30;;;;;;4965726;28;20442;-87
2023/05/20 09:56:46;;;;;;;7.97;5.20;;;16.80;97.30;;;;;;4968215;28;20190;-87
2023/05/20 09:59:15;;;;;;;13.07;6.63;;;16.90;97.30;;;;;;4974764;28;20425;-87
2023/05/20 10:01:41;;;;;;;10.40;5.63;;;16.80;97.30;;;;;;4974934;28;20924;-86
2023/05/20 10:04:08;;;;;;;16.77;5.67;;;16.80;97.30;;;;;;4974690;28;20457;-86
2023/05/20 10:07:12;;;;;;;10.37;6.97;;;17.00;97.30;;;;;;4959755;28;20181;-88
2023/05/20 10:09:44;;;;;;;5.50;4.87;;;17.00;97.30;;;;;;4964605;28;20427;-86
2023/05/20 10:12:43;;;;;;;14.23;6.97;;;17.10;97.30;;;;;;4968885;28;20451;-87
2023/05/20 10:15:38;;;;;;;12.23;4.73;;;17.20;97.30;;;;;;4994280;28;20423;-87
2023/05/20 10:18:48;;;;;;;9.73;5.80;;;17.30;97.30;;;;;;4970718;28;20499;-86
2023/05/20 10:21:15;;;;;;;8.60;6.60;;;17.40;97.30;;;;;;4997342;23;20570;-83
2023/05/20 10:23:41;;;;;;;7.00;5.90;;;17.50;97.30;;;;;;4985740;28;20439;-83
2023/05/20 10:26:07;;;;;;;10.60;7.50;;;17.60;97.30;;;;;;4987834;28;20947;-84
2023/05/20 10:28:37;;;;;;;8.70;4.47;;;17.80;97.30;;;;;;4997061;28;20178;-83
2023/05/20 10:31:14;;;;;;;12.23;6.90;;;18.00;96.60;;;;;;4983780;28;20196;-83
2023/05/20 10:33:42;;;;;;;11.97;7.63;;;18.10;97.30;;;;;;4973489;28;20434;-83
2023/05/20 10:36:08;;;;;;;11.93;6.77;;;18.40;97.30;;;;;;4980360;28;20436;-83
2023/05/20 10:38:33;;;;;;;11.97;6.67;;;18.60;96.10;;;;;;4962088;28;20789;-83
2023/05/20 10:41:10;;;;;;;6.27;5.40;;;18.70;96.50;;;;;;4969613;28;20645;-83
2023/05/20 10:43:35;;;;;;;10.17;6.23;;;18.90;96.30;;;;;;4954567;28;20587;-83
2023/05/20 10:46:01;;;;;;;7.33;4.50;;;19.00;95.30;;;;;;4970353;28;20433;-83
2023/05/20 10:48:30;;;;;;;9.97;6.13;;;19.10;95.20;;;;;;4975458;28;20684;-83
2023/05/20 10:51:02;;;;;;;13.53;6.70;;;19.10;94.50;;;;;;4981261;28;20269;-83
2023/05/20 10:53:30;;;;;;;13.50;6.00;;;19.20;94.10;;;;;;4983234;28;20535;-83
2023/05/20 10:55:55;;;;;;;7.83;5.57;;;19.10;93.50;;;;;;4956043;28;20444;-84
2023/05/20 10:58:22;;;;;;;6.80;4.47;;;19.00;93.80;;;;;;4957884;28;20438;-83
2023/05/20 11:00:49;;;;;;;10.57;6.70;;;19.00;94.30;;;;;;4958683;28;20218;-84
2023/05/20 11:03:17;;;;;;;11.83;5.53;;;19.00;94.00;;;;;;4985074;28;20444;-83
2023/05/20 11:05:45;;;;;;;6.83;4.70;;;19.00;94.20;;;;;;4988176;28;20428;-83
2023/05/20 11:08:11;;;;;;;8.87;5.73;;;19.00;94.50;;;;;;4975594;28;20444;-83
2023/05/20 11:10:37;;;;;;;8.90;5.93;;;18.80;93.60;;;;;;4984948;28;20733;-82
2023/05/20 11:13:03;;;;;;;7.67;5.17;;;18.70;93.80;;;;;;4986361;28;20978;-85
2023/05/20 11:15:30;;;;;;;10.17;6.87;;;18.60;94.70;;;;;;4993737;28;20217;-83
2023/05/20 11:17:59;;;;;;;10.70;5.53;;;18.80;95.30;;;;;;4965193;28;20438;-82
2023/05/20 11:20:25;;;;;;;4.20;3.50;;;18.90;94.10;;;;;;4974692;28;20433;-83
2023/05/20 11:22:51;;;;;;;8.90;4.40;;;18.90;94.00;;;;;;4974676;28;20461;-83
2023/05/20 11:25:18;;;;;;;8.03;5.70;;;19.00;94.20;;;;;;4970633;28;20542;-83
2023/05/20 11:27:44;;;;;;;7.93;6.47;;;19.20;95.00;;;;;;4957287;28;20469;-83
2023/05/20 11:30:15;;;;;;;8.60;5.40;;;19.40;93.60;;;;;;4961864;28;20430;-84
2023/05/20 11:32:41;;;;;;;8.20;5.23;;;19.60;93.20;;;;;;4963020;28;20464;-83
2023/05/20 11:35:07;;;;;;;10.47;4.73;;;19.70;93.20;;;;;;4961478;28;20418;-83
2023/05/20 11:37:35;;;;;;;9.63;3.93;;;19.80;93.40;;;;;;4982960;28;20182;-83
2023/05/20 11:40:07;;;;;;;10.33;4.53;;;20.10;93.70;;;;;;4967506;28;20421;-84
2023/05/20 11:42:34;;;;;;;8.03;6.03;;;20.40;92.80;;;;;;4972746;28;20468;-83
2023/05/20 11:45:00;;;;;;;6.50;4.93;;;20.50;92.20;;;;;;4975301;28;20414;-83
2023/05/20 11:47:28;;;;;;;7.20;4.03;;;20.50;91.30;;;;;;4968197;28;20469;-84
2023/05/20 11:49:55;;;;;;;6.53;4.90;;;20.50;92.20;;;;;;4978087;28;20442;-81
2023/05/20 11:52:21;;;;;;;6.63;5.87;;;20.50;91.10;;;;;;4950391;28;20519;-83
2023/05/20 11:54:52;;;;;;;12.00;5.77;;;20.50;91.00;;;;;;4961414;28;20433;-83
2023/05/20 11:57:19;;;;;;;4.97;3.43;;;20.60;92.30;;;;;;4970594;28;20210;-82
2023/05/20 11:59:45;;;;;;;7.90;4.80;;;20.70;91.80;;;;;;4985394;28;20417;-85
2023/05/20 12:02:11;;;;;;;9.43;5.03;;;20.70;91.20;;;;;;4970667;28;20469;-84
2023/05/20 12:04:36;;;;;;;13.70;7.77;;;20.70;90.90;;;;;;4973759;28;20432;-83
2023/05/20 12:07:02;;;;;;;10.17;6.07;;;20.60;91.50;;;;;;4975400;28;20174;-84
2023/05/20 12:09:28;;;;;;;11.57;5.40;;;20.60;91.30;;;;;;4988004;28;20174;-83
2023/05/20 12:11:55;;;;;;;11.17;6.60;;;20.70;92.60;;;;;;4965848;28;20499;-81
2023/05/20 12:14:21;;;;;;;10.30;5.70;;;20.70;91.50;;;;;;4967978;28;20189;-83
2023/05/20 12:16:46;;;;;;;20.37;8.27;;;20.80;91.90;;;;;;4967368;28;20432;-83
2023/05/20 12:19:12;;;;;;;9.30;5.47;;;20.90;90.60;;;;;;4966236;28;20690;-82
2023/05/20 12:21:37;;;;;;;10.40;5.53;;;21.00;91.90;;;;;;4982587;28;20229;-82
2023/05/20 12:24:05;;;;;;;13.23;7.00;;;21.10;90.20;;;;;;4966557;28;20181;-83
2023/05/20 12:26:32;;;;;;;7.43;3.57;;;21.10;91.70;;;;;;4967010;28;20185;-81
2023/05/20 12:28:57;;;;;;;11.73;6.07;;;21.30;90.80;;;;;;4967068;28;21006;-83
2023/05/20 12:31:23;;;;;;;6.20;4.60;;;21.50;91.70;;;;;;4966801;28;20517;-82
2023/05/20 12:33:49;;;;;;;13.73;5.50;;;21.50;89.10;;;;;;4967779;28;20197;-84
2023/05/20 12:36:15;;;;;;;4.50;4.10;;;21.50;89.70;;;;;;4961464;28;20430;-84
2023/05/20 12:38:40;;;;;;;9.10;6.37;;;21.40;90.00;;;;;;4964124;28;20232;-83
2023/05/20 12:41:06;;;;;;;7.80;5.70;;;21.50;90.40;;;;;;4961721;28;20222;-81
2023/05/20 12:43:31;;;;;;;8.13;5.60;;;21.50;90.10;;;;;;4963477;28;20198;-82
2023/05/20 12:45:57;;;;;;;18.80;5.23;;;21.60;89.90;;;;;;4958087;28;20565;-83
2023/05/20 12:48:22;;;;;;;5.10;3.93;;;21.70;89.90;;;;;;4963326;28;20591;-83
2023/05/20 12:50:48;;;;;;;9.83;5.67;;;21.80;89.20;;;;;;4964124;28;20664;-83
2023/05/20 12:53:14;;;;;;;9.93;5.47;;;21.90;89.10;;;;;;4966414;28;20237;-84
2023/05/20 12:55:39;;;;;;;12.17;6.67;;;22.00;89.00;;;;;;4961068;28;22000;-83
2023/05/20 12:58:07;;;;;;;14.53;7.10;;;22.00;89.10;;;;;;4983219;28;20648;-84
2023/05/20 13:00:33;;;;;;;8.27;5.40;;;22.00;89.50;;;;;;4962435;28;20186;-84
2023/05/20 13:02:58;;;;;;;12.57;6.07;;;22.00;88.50;;;;;;4980106;28;20453;-84
2023/05/20 13:05:24;;;;;;;9.40;4.90;;;21.90;88.70;;;;;;4962957;28;20676;-85
2023/05/20 13:07:50;;;;;;;10.90;5.70;;;21.90;89.50;;;;;;4965565;28;20370;-85
2023/05/20 13:10:16;;;;;;;17.30;7.20;;;21.80;89.00;;;;;;4978061;28;20188;-86
2023/05/20 13:12:44;;;;;;;5.30;4.57;;;21.90;89.10;;;;;;4981105;28;20277;-83
2023/05/20 13:15:12;;;;;;;10.43;5.93;;;22.00;89.20;;;;;;4984079;28;20413;-80
2023/05/20 13:17:38;;;;;;;9.53;4.73;;;22.10;89.80;;;;;;4964791;28;20469;-83
2023/05/20 13:20:04;;;;;;;12.07;5.17;;;22.20;89.50;;;;;;4959770;28;20500;-80
2023/05/20 13:22:29;;;;;;;6.20;4.33;;;22.20;88.10;;;;;;4963788;28;20508;-83
2023/05/20 13:24:55;;;;;;;14.57;8.10;;;22.10;88.30;;;;;;4966025;28;20440;-82
2023/05/20 13:27:20;;;;;;;10.27;5.33;;;22.10;88.10;;;;;;4966729;28;20186;-80
2023/05/20 13:29:46;;;;;;;15.73;7.13;;;22.20;89.20;;;;;;4965845;28;20181;-83
2023/05/20 13:32:11;;;;;;;9.90;6.17;;;22.40;88.90;;;;;;4969035;28;20293;-80
2023/05/20 13:34:37;;;;;;;11.87;8.37;;;22.50;89.80;;;;;;4984241;28;20576;-84
2023/05/20 13:37:03;;;;;;;17.73;7.47;;;22.70;87.40;;;;;;4986442;28;20185;-82
2023/05/20 13:39:29;;;;;;;15.43;5.60;;;22.70;87.50;;;;;;4964153;28;20435;-83
2023/05/20 13:41:55;;;;;;;7.00;4.00;;;22.70;88.40;;;;;;4955733;28;20558;-82
2023/05/20 13:44:20;;;;;;;5.33;4.23;;;22.80;88.10;;;;;;4969970;28;20544;-84
2023/05/20 13:46:46;;;;;;;12.97;6.07;;;23.00;88.70;;;;;;4971642;28;20441;-82
2023/05/20 13:49:11;;;;;;;11.83;7.20;;;23.00;87.20;;;;;;4970937;28;20182;-83
2023/05/20 13:51:37;;;;;;;7.40;5.33;;;23.00;87.10;;;;;;4984964;28;20213;-82
2023/05/20 13:54:03;;;;;;;9.47;5.83;;;23.10;86.80;;;;;;4968575;28;20182;-82
2023/05/20 13:56:28;;;;;;;9.77;5.00;;;23.20;87.50;;;;;;4964621;28;20233;-83
2023/05/20 13:58:54;;;;;;;6.60;5.00;;;23.40;87.20;;;;;;4967320;28;20193;-83
2023/05/20 14:01:19;;;;;;;9.20;5.10;;;23.40;86.20;;;;;;4968984;28;20216;-83
2023/05/20 14:03:45;;;;;;;5.77;4.30;;;23.40;86.70;;;;;;4969189;28;20178;-82
2023/05/20 14:06:11;;;;;;;7.93;4.77;;;23.50;86.20;;;;;;4958857;28;20190;-83
2023/05/20 14:08:36;;;;;;;11.83;5.40;;;23.50;85.80;;;;;;4971297;28;20734;-82
2023/05/20 14:11:02;;;;;;;11.30;6.43;;;23.60;86.30;;;;;;4972161;28;20762;-83
2023/05/20 14:13:28;;;;;;;6.93;4.43;;;23.80;86.60;;;;;;4974970;28;20242;-83
2023/05/20 14:15:53;;;;;;;9.67;5.83;;;23.80;86.00;;;;;;4972999;28;20250;-83
2023/05/20 14:18:20;;;;;;;22.33;5.63;;;23.80;85.90;;;;;;4974084;28;20660;-81
2023/05/20 14:20:45;;;;;;;7.67;5.30;;;23.90;86.10;;;;;;4973057;28;20216;-82
2023/05/20 14:23:11;;;;;;;4.83;3.90;;;24.00;85.70;;;;;;4974060;28;20468;-82
2023/05/20 14:25:37;;;;;;;16.73;8.03;;;24.00;84.90;;;;;;4975740;28;20174;-83
2023/05/20 14:28:03;;;;;;;8.23;4.83;;;24.00;85.40;;;;;;4973521;28;20186;-83
2023/05/20 14:30:28;;;;;;;10.77;4.90;;;23.80;85.80;;;;;;4974306;28;20182;-83
2023/05/20 14:32:54;;;;;;;10.23;4.67;;;23.70;85.50;;;;;;4977005;28;20206;-82
2023/05/20 14:35:19;;;;;;;12.20;4.30;;;23.50;86.00;;;;;;4977322;28;20185;-82
2023/05/20 14:37:45;;;;;;;8.80;4.03;;;23.60;85.70;;;;;;4986203;28;20237;-81
2023/05/20 14:40:11;;;;;;;3.90;3.73;;;23.70;86.10;;;;;;4966892;28;20187;-82
2023/05/20 14:42:36;;;;;;;4.63;4.40;;;23.80;85.70;;;;;;4988838;28;20218;-83
2023/05/20 14:45:02;;;;;;;11.90;6.20;;;23.90;84.70;;;;;;4969117;28;20181;-83
2023/05/20 14:47:28;;;;;;;7.27;4.97;;;23.90;85.20;;;;;;4965985;28;20316;-83
2023/05/20 14:49:54;;;;;;;10.90;5.37;;;24.10;85.50;;;;;;4963261;28;20571;-83
2023/05/20 14:52:20;;;;;;;6.77;4.23;;;24.10;84.90;;;;;;4979718;28;20279;-79
2023/05/20 14:54:46;;;;;;;7.33;5.03;;;24.00;84.40;;;;;;4959583;28;20457;-82
2023/05/20 14:57:11;;;;;;;4.87;3.97;;;23.90;84.80;;;;;;4987555;28;20186;-82
2023/05/20 14:59:37;;;;;;;7.70;5.80;;;23.90;85.10;;;;;;4967862;28;20217;-86
2023/05/20 15:02:04;;;;;;;13.13;5.33;;;23.90;85.10;;;;;;4984768;28;20225;-84
2023/05/20 15:04:29;;;;;;;5.30;3.30;;;24.00;84.90;;;;;;4964789;28;20546;-84
2023/05/20 15:06:55;;;;;;;7.83;5.37;;;24.10;84.20;;;;;;4970649;28;20437;-82
2023/05/20 15:09:20;;;;;;;5.40;3.77;;;24.10;84.70;;;;;;4959476;28;20186;-84
2023/05/20 15:11:46;;;;;;;7.90;4.80;;;24.10;84.70;;;;;;4969241;28;20210;-83
2023/05/20 15:14:11;;;;;;;5.40;4.33;;;24.10;84.70;;;;;;4970395;28;20570;-85
2023/05/20 15:16:37;;;;;;;6.60;4.90;;;24.10;84.60;;;;;;4962711;28;20192;-84
2023/05/20 15:19:02;;;;;;;11.70;6.27;;;24.20;84.40;;;;;;4966795;28;20182;-84
2023/05/20 15:21:29;;;;;;;10.67;6.53;;;24.20;84.60;;;;;;4966744;28;20197;-83
2023/05/20 15:23:55;;;;;;;8.13;4.77;;;24.30;85.10;;;;;;4969655;28;20679;-85
2023/05/20 15:26:21;;;;;;;14.40;5.30;;;24.40;84.50;;;;;;4961646;28;20422;-84
2023/05/20 15:28:46;;;;;;;6.63;3.90;;;24.50;84.40;;;;;;4969548;28;20185;-83
2023/05/20 15:31:11;;;;;;;26.27;21.87;;;24.60;85.00;;;;;;4967329;28;20198;-85
2023/05/20 15:33:37;;;;;;;8.33;5.40;;;24.70;83.30;;;;;;4970274;28;20759;-83
2023/05/20 15:36:03;;;;;;;7.47;4.83;;;24.50;83.60;;;;;;4964403;28;20186;-83
2023/05/20 15:38:28;;;;;;;5.60;5.00;;;24.40;83.50;;;;;;4981728;28;20710;-84
2023/05/20 15:40:55;;;;;;;9.90;5.30;;;24.20;83.60;;;;;;4969195;28;20209;-84
2023/05/20 15:43:20;;;;;;;8.70;3.93;;;23.90;84.20;;;;;;4966417;28;20280;-84
2023/05/20 15:45:46;;;;;;;8.00;4.03;;;23.70;84.60;;;;;;4969218;28;20441;-85
2023/05/20 15:48:12;;;;;;;5.63;3.97;;;23.50;85.20;;;;;;4970798;28;20174;-84
2023/05/20 15:50:38;;;;;;;6.43;4.43;;;23.40;85.30;;;;;;4987555;28;20924;-84
2023/05/20 15:53:06;;;;;;;11.00;5.93;;;23.30;86.20;;;;;;4985821;28;20249;-84
2023/05/20 15:55:31;;;;;;;10.40;5.00;;;23.40;86.30;;;;;;4971592;28;20181;-83
2023/05/20 15:57:57;;;;;;;11.97;5.70;;;23.40;85.60;;;;;;4970836;28;20412;-84
2023/05/20 16:00:22;;;;;;;16.13;7.97;;;23.40;85.50;;;;;;4967480;28;20186;-84
2023/05/20 16:02:48;;;;;;;11.23;5.43;;;23.40;86.10;;;;;;4985785;28;20229;-83
2023/05/20 16:05:14;;;;;;;12.30;6.23;;;23.40;86.10;;;;;;4967204;28;20171;-85
2023/05/20 16:07:40;;;;;;;9.50;5.77;;;23.30;85.90;;;;;;4956110;28;20178;-83
2023/05/20 16:10:07;;;;;;;4.30;4.00;;;23.20;86.40;;;;;;4980077;28;20209;-84
2023/05/20 16:12:32;;;;;;;8.10;4.80;;;23.20;86.20;;;;;;4966595;28;20449;-84
2023/05/20 16:14:59;;;;;;;12.83;6.07;;;23.20;86.70;;;;;;4969653;28;20423;-85
2023/05/20 16:17:25;;;;;;;9.70;6.03;;;23.20;86.50;;;;;;4968212;28;20185;-84
2023/05/20 16:19:50;;;;;;;7.93;5.30;;;23.10;85.90;;;;;;4966814;28;20488;-84
2023/05/20 16:22:17;;;;;;;6.30;4.87;;;23.10;86.50;;;;;;4968473;28;20735;-82
2023/05/20 16:24:42;;;;;;;4.70;4.27;;;23.00;86.20;;;;;;4952958;28;20861;-85
2023/05/20 16:27:08;;;;;;;8.60;5.20;;;22.90;86.40;;;;;;4984608;28;20487;-84
2023/05/20 16:29:33;;;;;;;11.20;4.93;;;23.00;86.70;;;;;;4969751;28;20240;-83
2023/05/20 16:31:59;;;;;;;7.27;4.90;;;23.00;86.30;;;;;;4985531;28;20210;-84
2023/05/20 16:34:24;;;;;;;8.27;5.63;;;23.10;86.40;;;;;;4965438;28;20865;-84
2023/05/20 16:36:50;;;;;;;10.27;5.33;;;23.10;86.40;;;;;;4966126;28;20583;-85
2023/05/20 16:39:15;;;;;;;12.40;6.07;;;23.10;86.50;;;;;;4968596;28;20196;-85